Raccoon Key, Florida
Current Conditions -  °F | °C
As of 12:53 AM on Wednesday 28 Jan 2015 (Local Time) from KNQX Reporting Station
Few Clouds Few Clouds  
Wind Chill: 67°   Ceiling: Unl
Heat Index: 67°   Visibility: 10mi
Dew Point: 56°   Wind: 12mph
Humidity: 68%   Direction: 300°WNW
Pressure: 30.08"   Gusts: NA
Location:  24.5796°N, 81.6849°W
Report Text: KNQX 280553Z AUTO 30010KT 10SM FEW039 19/13 A3008 RMK AO2 SLP185 T01940133 10194 20189 50000 $
Loading
Personal Weather Stations






























Interactive Weather Map New forecast layout! Learn more

10-Day Weather Forecast

Advertisements
Track Severe Weather on mobile